Time;durP1;ratioP1;P1;durP2;ratioP2;P2;SDS_P1;SDS_P2;PMS_P1;PMS_P2;Temp;Humidity;BMP_temperature;BMP_pressure;BME280_temperature;BME280_humidity;BME280_pressure;Samples;Min_cycle;Max_cycle;Signal;HPM_P1;HPM_P2
2024/04/02 00:01:27;;;;;;;0.73;0.40;;;10.00;99.90;;;;;;4987243;28;20031;-81
2024/04/02 00:03:53;;;;;;;0.77;0.52;;;10.00;99.90;;;;;;4979749;28;20515;-80
2024/04/02 00:06:18;;;;;;;2.15;0.73;;;10.00;99.90;;;;;;4968481;28;20053;-80
2024/04/02 00:08:44;;;;;;;0.93;0.50;;;10.00;99.90;;;;;;4969221;28;20560;-81
2024/04/02 00:11:09;;;;;;;0.32;0.20;;;9.90;99.90;;;;;;4954403;28;20105;-80
2024/04/02 00:13:35;;;;;;;0.93;0.40;;;9.90;99.90;;;;;;4970279;28;20118;-81
2024/04/02 00:16:01;;;;;;;3.45;0.50;;;9.90;99.90;;;;;;4984790;28;20072;-81
2024/04/02 00:18:26;;;;;;;0.45;0.30;;;10.00;99.90;;;;;;4970966;28;20578;-81
2024/04/02 00:20:52;;;;;;;2.25;1.02;;;9.90;99.90;;;;;;4986121;28;20583;-81
2024/04/02 00:23:18;;;;;;;1.13;0.40;;;9.90;99.90;;;;;;4974208;28;20030;-81
2024/04/02 00:25:43;;;;;;;2.42;0.63;;;9.90;99.90;;;;;;4971592;28;20066;-80
2024/04/02 00:28:11;;;;;;;1.92;0.47;;;9.80;99.90;;;;;;4971707;28;20031;-80
2024/04/02 00:30:37;;;;;;;1.60;0.38;;;9.80;99.90;;;;;;4988988;28;20537;-80
2024/04/02 00:33:02;;;;;;;0.60;0.47;;;9.80;99.90;;;;;;4991120;28;20130;-81
2024/04/02 00:35:28;;;;;;;0.60;0.35;;;9.80;99.90;;;;;;4972795;28;20831;-80
2024/04/02 00:37:54;;;;;;;0.75;0.28;;;9.70;99.90;;;;;;4974749;28;20030;-80
2024/04/02 00:40:19;;;;;;;0.30;0.28;;;9.70;99.90;;;;;;4986654;28;20027;-80
2024/04/02 00:42:45;;;;;;;0.95;0.25;;;9.70;99.90;;;;;;4989035;28;20056;-80
2024/04/02 00:45:11;;;;;;;0.60;0.20;;;9.70;99.90;;;;;;4956956;28;20112;-81
2024/04/02 00:47:37;;;;;;;1.88;0.30;;;9.60;99.90;;;;;;4966773;28;20101;-80
2024/04/02 00:50:04;;;;;;;2.00;0.60;;;9.60;99.90;;;;;;4966887;28;20241;-81
2024/04/02 00:52:29;;;;;;;2.25;0.60;;;9.60;99.90;;;;;;4991485;28;20099;-80
2024/04/02 00:54:55;;;;;;;0.43;0.30;;;9.60;99.90;;;;;;4985199;28;20030;-80
2024/04/02 00:57:22;;;;;;;0.73;0.38;;;9.60;99.90;;;;;;4957475;28;20033;-81
2024/04/02 00:59:48;;;;;;;2.40;0.60;;;9.50;99.90;;;;;;4966263;28;20546;-81
2024/04/02 01:02:13;;;;;;;2.38;0.30;;;9.50;99.90;;;;;;4954454;28;20150;-80
2024/04/02 01:04:39;;;;;;;1.17;0.52;;;9.50;99.90;;;;;;4971947;28;20088;-81
2024/04/02 01:07:05;;;;;;;1.48;0.43;;;9.40;99.90;;;;;;4993795;28;20523;-80
2024/04/02 01:09:30;;;;;;;3.35;0.57;;;9.40;99.90;;;;;;4990077;28;20651;-80
2024/04/02 01:11:57;;;;;;;2.90;0.40;;;9.50;99.90;;;;;;4973689;28;20544;-80
2024/04/02 01:14:22;;;;;;;0.77;0.40;;;9.40;99.90;;;;;;4985816;28;20062;-80
2024/04/02 01:16:48;;;;;;;4.15;0.55;;;9.40;99.90;;;;;;4973824;28;20042;-80
2024/04/02 01:19:13;;;;;;;3.25;0.32;;;9.40;99.90;;;;;;4987152;28;20034;-81
2024/04/02 01:21:39;;;;;;;4.43;0.60;;;9.30;99.90;;;;;;4969302;28;20031;-80
2024/04/02 01:24:05;;;;;;;0.55;0.17;;;9.30;99.90;;;;;;4974498;28;20034;-80
2024/04/02 01:26:31;;;;;;;0.93;0.40;;;9.30;99.90;;;;;;4987552;28;20038;-79
2024/04/02 01:28:58;;;;;;;1.17;0.20;;;9.30;99.90;;;;;;4971797;28;20092;-80
2024/04/02 01:31:27;;;;;;;1.30;0.40;;;9.30;99.90;;;;;;4993003;28;20022;-80
2024/04/02 01:33:52;;;;;;;1.95;0.73;;;9.20;99.90;;;;;;4969474;28;20034;-80
2024/04/02 01:36:18;;;;;;;1.95;0.40;;;9.20;99.90;;;;;;4970466;28;20031;-80
2024/04/02 01:38:43;;;;;;;10.02;0.93;;;9.20;99.90;;;;;;4960450;28;20161;-80
2024/04/02 01:41:09;;;;;;;0.45;0.20;;;9.10;99.90;;;;;;4987539;28;20033;-80
2024/04/02 01:43:34;;;;;;;2.90;0.32;;;9.20;99.90;;;;;;4986026;28;20038;-80
2024/04/02 01:46:00;;;;;;;3.00;0.70;;;9.20;99.90;;;;;;4988519;28;20041;-80
2024/04/02 01:48:25;;;;;;;2.97;0.50;;;9.20;99.90;;;;;;4970612;28;20167;-80
2024/04/02 01:50:51;;;;;;;2.85;0.35;;;9.10;99.90;;;;;;4982590;28;20041;-80
2024/04/02 01:53:17;;;;;;;1.27;0.40;;;9.10;99.90;;;;;;4969186;28;20129;-80
2024/04/02 01:55:44;;;;;;;1.02;0.50;;;9.10;99.90;;;;;;4987445;28;20038;-81
2024/04/02 01:58:09;;;;;;;0.65;0.30;;;9.00;99.90;;;;;;4993908;28;20042;-81
2024/04/02 02:00:35;;;;;;;2.28;0.45;;;9.10;99.90;;;;;;4971323;28;20026;-80
2024/04/02 02:03:00;;;;;;;1.23;0.70;;;9.10;99.90;;;;;;4960290;28;20267;-81
2024/04/02 02:05:26;;;;;;;2.45;0.77;;;9.10;99.90;;;;;;4972537;28;20027;-80
2024/04/02 02:07:52;;;;;;;2.70;0.52;;;9.00;99.90;;;;;;4985297;28;20037;-81
2024/04/02 02:10:17;;;;;;;0.20;0.20;;;9.10;99.90;;;;;;4958196;28;20034;-80
2024/04/02 02:12:43;;;;;;;2.10;0.80;;;9.00;99.90;;;;;;4985706;28;20101;-80
2024/04/02 02:15:08;;;;;;;2.33;0.40;;;9.10;99.90;;;;;;4970896;28;20050;-80
2024/04/02 02:17:34;;;;;;;0.52;0.52;;;9.10;99.90;;;;;;4970846;28;20034;-79
2024/04/02 02:19:59;;;;;;;1.13;0.43;;;9.10;99.90;;;;;;4984482;28;20032;-80
2024/04/02 02:22:25;;;;;;;6.03;0.50;;;9.10;99.90;;;;;;4968513;28;20033;-80
2024/04/02 02:24:51;;;;;;;2.53;0.45;;;9.10;99.90;;;;;;4987931;28;20018;-81
2024/04/02 02:27:16;;;;;;;1.75;0.80;;;9.10;99.90;;;;;;4991260;28;20432;-80
2024/04/02 02:29:42;;;;;;;0.75;0.50;;;9.10;99.90;;;;;;4989018;28;20205;-80
2024/04/02 02:32:08;;;;;;;4.32;0.90;;;9.00;99.90;;;;;;4955490;28;20496;-80
2024/04/02 02:34:33;;;;;;;2.88;0.65;;;9.00;99.90;;;;;;4973390;28;20031;-80
2024/04/02 02:36:59;;;;;;;4.28;0.45;;;9.00;99.90;;;;;;4954935;28;20117;-81
2024/04/02 02:39:24;;;;;;;0.88;0.40;;;9.00;99.90;;;;;;4955649;28;20031;-80
2024/04/02 02:41:50;;;;;;;5.00;0.70;;;9.00;99.90;;;;;;4988504;28;20026;-81
2024/04/02 02:44:15;;;;;;;4.95;0.40;;;9.00;99.90;;;;;;4972023;28;20569;-80
2024/04/02 02:46:41;;;;;;;4.35;0.47;;;8.90;99.90;;;;;;4988300;28;20481;-81
2024/04/02 02:49:06;;;;;;;1.17;0.40;;;9.00;99.90;;;;;;4987742;28;20026;-81
2024/04/02 02:51:32;;;;;;;2.05;0.50;;;9.00;99.90;;;;;;4959955;28;20030;-80
2024/04/02 02:53:57;;;;;;;1.95;0.47;;;9.00;99.90;;;;;;4989270;28;20035;-80
2024/04/02 02:56:23;;;;;;;2.88;0.77;;;9.00;99.90;;;;;;4958767;28;20037;-81
2024/04/02 02:58:51;;;;;;;4.05;0.68;;;9.00;99.90;;;;;;4983605;28;20034;-80
2024/04/02 03:01:17;;;;;;;1.05;0.70;;;9.00;99.90;;;;;;4972334;28;20138;-81
2024/04/02 03:03:47;;;;;;;2.55;0.52;;;9.00;99.90;;;;;;4983806;28;20576;-79
2024/04/02 03:06:12;;;;;;;4.72;0.80;;;9.00;99.90;;;;;;4982487;28;20030;-81
2024/04/02 03:08:38;;;;;;;0.50;0.38;;;9.00;99.90;;;;;;4974204;28;20428;-79
2024/04/02 03:11:04;;;;;;;1.95;0.73;;;9.00;99.90;;;;;;4972337;28;20037;-79
2024/04/02 03:13:30;;;;;;;0.88;0.50;;;9.10;99.90;;;;;;4988006;28;20038;-79
2024/04/02 03:15:56;;;;;;;2.22;0.70;;;9.00;99.90;;;;;;4968917;28;20519;-79
2024/04/02 03:18:22;;;;;;;2.17;0.50;;;9.00;99.90;;;;;;4983632;28;20030;-79
2024/04/02 03:20:47;;;;;;;1.83;0.50;;;9.00;99.90;;;;;;4984083;28;20036;-79
2024/04/02 03:23:13;;;;;;;1.30;0.60;;;9.00;99.90;;;;;;4974129;28;20026;-79
2024/04/02 03:25:38;;;;;;;5.78;0.82;;;9.00;99.90;;;;;;4971355;28;20027;-79
2024/04/02 03:28:04;;;;;;;2.42;0.77;;;9.00;99.90;;;;;;4965267;28;20052;-79
2024/04/02 03:30:30;;;;;;;1.92;0.43;;;8.90;99.90;;;;;;4956607;28;20454;-79
2024/04/02 03:32:55;;;;;;;5.07;0.40;;;8.90;99.90;;;;;;4967596;28;20046;-79
2024/04/02 03:35:21;;;;;;;1.35;0.50;;;8.90;99.90;;;;;;4973864;28;20034;-78
2024/04/02 03:37:46;;;;;;;4.07;0.80;;;8.90;99.90;;;;;;4986285;28;20046;-79
2024/04/02 03:40:12;;;;;;;3.00;0.38;;;8.90;99.90;;;;;;4965654;28;20038;-79
2024/04/02 03:42:38;;;;;;;3.35;0.68;;;8.80;99.90;;;;;;4966939;28;20034;-79
2024/04/02 03:45:05;;;;;;;3.25;0.93;;;8.90;99.90;;;;;;4972203;28;20042;-79
2024/04/02 03:47:30;;;;;;;2.30;0.50;;;8.90;99.90;;;;;;4955272;28;20023;-79
2024/04/02 03:49:56;;;;;;;3.78;0.63;;;8.90;99.90;;;;;;4968481;28;20041;-78
2024/04/02 03:52:22;;;;;;;1.52;0.57;;;8.80;99.90;;;;;;4993282;28;20396;-81
2024/04/02 03:54:47;;;;;;;2.78;0.52;;;8.80;99.90;;;;;;4958708;28;20419;-78
2024/04/02 03:57:13;;;;;;;1.92;0.60;;;8.80;99.90;;;;;;4959328;28;20026;-79
2024/04/02 03:59:39;;;;;;;1.35;0.60;;;8.70;99.90;;;;;;4992105;28;20158;-81
2024/04/02 04:02:04;;;;;;;1.58;1.00;;;8.70;99.90;;;;;;4961202;28;20080;-81
2024/04/02 04:04:30;;;;;;;3.17;0.82;;;8.70;99.90;;;;;;4989396;28;20142;-81
2024/04/02 04:06:55;;;;;;;1.98;0.60;;;8.70;99.90;;;;;;4972433;28;20031;-81
2024/04/02 04:09:23;;;;;;;0.85;0.43;;;8.70;99.90;;;;;;4971448;28;20069;-82
2024/04/02 04:11:49;;;;;;;9.25;0.90;;;8.80;99.90;;;;;;4990196;28;20502;-81
2024/04/02 04:14:14;;;;;;;1.80;0.70;;;8.80;99.90;;;;;;4991796;28;20042;-81
2024/04/02 04:16:40;;;;;;;0.98;0.30;;;8.80;99.90;;;;;;4962000;28;20054;-81
2024/04/02 04:19:05;;;;;;;1.55;0.52;;;8.80;99.90;;;;;;4985903;28;20460;-81
2024/04/02 04:21:31;;;;;;;2.08;0.40;;;8.80;99.90;;;;;;4991354;28;20033;-81
2024/04/02 04:23:57;;;;;;;4.35;0.82;;;8.70;99.90;;;;;;4975044;28;20042;-80
2024/04/02 04:26:23;;;;;;;3.72;0.75;;;8.80;99.90;;;;;;4975083;28;20189;-80
2024/04/02 04:28:48;;;;;;;0.88;0.32;;;8.80;99.90;;;;;;4959149;28;20110;-80
2024/04/02 04:31:14;;;;;;;3.05;0.45;;;8.80;99.90;;;;;;4973997;28;20699;-81
2024/04/02 04:33:39;;;;;;;0.40;0.40;;;8.80;99.90;;;;;;4979277;28;20061;-81
2024/04/02 04:36:05;;;;;;;2.28;0.60;;;8.80;99.90;;;;;;4978581;28;20026;-81
2024/04/02 04:38:31;;;;;;;3.60;0.82;;;8.90;99.90;;;;;;4989108;28;20432;-81
2024/04/02 04:40:56;;;;;;;2.13;0.30;;;8.90;99.90;;;;;;4972521;28;20030;-81
2024/04/02 04:43:22;;;;;;;1.80;0.70;;;8.90;99.90;;;;;;4992453;28;20046;-80
2024/04/02 04:45:54;;;;;;;4.05;0.85;;;8.90;99.90;;;;;;4957327;28;20078;-80
2024/04/02 04:48:19;;;;;;;0.13;0.10;;;8.90;99.90;;;;;;4992635;28;20396;-81
2024/04/02 04:50:59;;;;;;;2.63;0.55;;;8.90;99.90;;;;;;4960496;28;20034;-81
2024/04/02 04:53:24;;;;;;;3.15;0.80;;;9.00;99.90;;;;;;4970296;28;20042;-80
2024/04/02 04:55:50;;;;;;;1.33;0.40;;;8.90;99.90;;;;;;4991166;28;20038;-81
2024/04/02 04:58:15;;;;;;;1.63;0.68;;;8.90;99.90;;;;;;4994731;28;20026;-80
2024/04/02 05:00:43;;;;;;;1.48;0.50;;;8.90;99.90;;;;;;4960578;28;20034;-81
2024/04/02 05:03:08;;;;;;;1.17;0.50;;;8.90;99.90;;;;;;4975599;28;20026;-81
2024/04/02 05:05:34;;;;;;;1.52;0.60;;;9.00;99.90;;;;;;4989214;28;20034;-81
2024/04/02 05:08:18;;;;;;;1.08;0.70;;;9.00;99.90;;;;;;4970497;28;20026;-79
2024/04/02 05:10:44;;;;;;;1.50;0.43;;;9.00;99.90;;;;;;4989071;28;20041;-82
2024/04/02 05:13:10;;;;;;;1.63;0.77;;;9.00;99.90;;;;;;4959231;28;20042;-81
2024/04/02 05:15:36;;;;;;;2.17;0.70;;;9.00;99.90;;;;;;4970431;28;20631;-81
2024/04/02 05:18:01;;;;;;;2.75;0.73;;;9.00;99.90;;;;;;4972411;28;20034;-78
2024/04/02 05:20:27;;;;;;;1.63;0.80;;;9.00;99.90;;;;;;4990344;28;20488;-78
2024/04/02 05:22:53;;;;;;;3.85;0.43;;;8.90;99.90;;;;;;4990804;28;20400;-78
2024/04/02 05:25:19;;;;;;;1.90;0.40;;;9.00;99.90;;;;;;4974459;28;20455;-80
2024/04/02 05:27:44;;;;;;;4.65;1.00;;;8.90;99.90;;;;;;4970426;28;20117;-78
2024/04/02 05:30:12;;;;;;;2.38;0.70;;;8.90;99.90;;;;;;4958443;28;20054;-78
2024/04/02 05:32:38;;;;;;;1.42;0.90;;;8.90;99.90;;;;;;4992571;28;20066;-78
2024/04/02 05:35:03;;;;;;;6.10;1.35;;;8.90;99.90;;;;;;4961669;28;20201;-78
2024/04/02 05:37:29;;;;;;;0.60;0.50;;;8.90;99.90;;;;;;4984565;28;20106;-78
2024/04/02 05:39:54;;;;;;;2.47;0.80;;;8.90;99.90;;;;;;4979065;28;20058;-79
2024/04/02 05:42:20;;;;;;;2.80;0.80;;;8.90;99.90;;;;;;4968612;28;20120;-78
2024/04/02 05:44:47;;;;;;;1.85;0.80;;;8.90;99.90;;;;;;4971928;28;20029;-79
2024/04/02 05:47:12;;;;;;;3.33;1.10;;;8.90;99.90;;;;;;4988247;28;20034;-78
2024/04/02 05:49:38;;;;;;;3.50;1.27;;;8.90;99.90;;;;;;4970012;28;20018;-79
2024/04/02 05:52:04;;;;;;;1.80;0.50;;;8.90;99.90;;;;;;4975412;28;20042;-79
2024/04/02 05:54:29;;;;;;;1.52;1.00;;;8.90;99.90;;;;;;4986889;28;20042;-79
2024/04/02 05:56:55;;;;;;;5.00;0.98;;;8.90;99.90;;;;;;4955758;28;20022;-79
2024/04/02 05:59:21;;;;;;;4.20;0.80;;;8.90;99.90;;;;;;4985422;28;20033;-78
2024/04/02 06:01:46;;;;;;;1.20;0.80;;;8.90;99.90;;;;;;4968202;28;20392;-78
2024/04/02 06:04:12;;;;;;;5.45;0.82;;;8.80;99.90;;;;;;4982357;28;20508;-81
2024/04/02 06:06:37;;;;;;;1.33;0.90;;;8.80;99.90;;;;;;4990285;28;20408;-80
2024/04/02 06:09:03;;;;;;;2.92;0.80;;;8.90;99.90;;;;;;4987668;28;20488;-80
2024/04/02 06:11:28;;;;;;;1.55;0.80;;;8.90;99.90;;;;;;4985759;28;20038;-80
2024/04/02 06:13:54;;;;;;;2.90;1.15;;;8.90;99.90;;;;;;4963569;28;20034;-80
2024/04/02 06:16:19;;;;;;;1.90;0.40;;;8.90;99.90;;;;;;4973869;28;20052;-80
2024/04/02 06:18:45;;;;;;;4.03;0.65;;;8.90;99.90;;;;;;4993274;28;20388;-80
2024/04/02 06:21:11;;;;;;;4.32;1.02;;;8.90;99.90;;;;;;5007097;28;20499;-80
2024/04/02 06:23:36;;;;;;;4.55;1.25;;;8.90;99.90;;;;;;5001094;28;20080;-80
2024/04/02 06:26:02;;;;;;;1.38;0.90;;;8.90;99.90;;;;;;4976455;28;20084;-80
2024/04/02 06:28:27;;;;;;;4.43;0.90;;;8.90;99.90;;;;;;4984620;28;20045;-80
2024/04/02 06:30:53;;;;;;;1.70;0.80;;;9.00;99.90;;;;;;4958363;28;20030;-81
2024/04/02 06:33:18;;;;;;;5.53;1.00;;;9.00;99.90;;;;;;4990317;28;20030;-80
2024/04/02 06:35:44;;;;;;;3.05;1.00;;;8.90;99.90;;;;;;4967687;28;20045;-80
2024/04/02 06:38:09;;;;;;;4.35;0.90;;;9.00;99.90;;;;;;4973160;28;20053;-80
2024/04/02 06:40:35;;;;;;;4.60;1.10;;;9.00;99.90;;;;;;4984294;28;20050;-80
2024/04/02 06:43:01;;;;;;;7.38;1.45;;;9.10;99.90;;;;;;4954563;28;20519;-81
2024/04/02 06:45:27;;;;;;;5.53;1.10;;;9.10;99.90;;;;;;4970010;28;20036;-80
2024/04/02 06:47:53;;;;;;;1.77;0.70;;;9.20;99.90;;;;;;4991458;28;20026;-80
2024/04/02 06:50:18;;;;;;;5.50;1.10;;;9.20;99.90;;;;;;4973836;28;20037;-80
2024/04/02 06:52:44;;;;;;;4.50;1.15;;;9.30;99.90;;;;;;4987371;28;20046;-80
2024/04/02 06:55:10;;;;;;;5.88;1.17;;;9.30;99.90;;;;;;4985199;28;20113;-80
2024/04/02 06:57:35;;;;;;;2.67;0.80;;;9.40;99.90;;;;;;4967973;28;20511;-81
2024/04/02 07:00:01;;;;;;;7.15;1.30;;;9.40;99.90;;;;;;4985653;28;20409;-81
2024/04/02 07:02:26;;;;;;;4.28;1.30;;;9.40;99.90;;;;;;4992336;28;20546;-80
2024/04/02 07:04:52;;;;;;;5.93;1.33;;;9.40;99.90;;;;;;4988819;28;20675;-80
2024/04/02 07:07:18;;;;;;;2.75;0.73;;;9.50;99.90;;;;;;4989882;28;20042;-80
2024/04/02 07:09:43;;;;;;;5.72;1.20;;;9.50;99.90;;;;;;4956317;28;20093;-80
2024/04/02 07:12:10;;;;;;;1.58;0.65;;;9.60;99.90;;;;;;4968305;28;20026;-80
2024/04/02 07:14:36;;;;;;;4.57;1.67;;;9.70;99.90;;;;;;4957080;28;20126;-79
2024/04/02 07:17:02;;;;;;;10.07;1.73;;;9.70;99.90;;;;;;4973446;28;20448;-81
2024/04/02 07:19:28;;;;;;;6.95;1.20;;;9.70;99.90;;;;;;4989972;28;20085;-80
2024/04/02 07:21:54;;;;;;;3.90;0.90;;;9.80;99.90;;;;;;4970277;28;20030;-80
2024/04/02 07:24:19;;;;;;;11.00;1.17;;;9.80;99.90;;;;;;4988706;28;20034;-80
2024/04/02 07:26:45;;;;;;;6.75;1.50;;;9.80;99.90;;;;;;4989461;28;20396;-81
2024/04/02 07:29:10;;;;;;;5.03;1.17;;;9.90;99.90;;;;;;4918609;28;20043;-81
2024/04/02 07:31:36;;;;;;;4.10;0.98;;;10.00;99.90;;;;;;4967603;28;20030;-80
2024/04/02 07:34:01;;;;;;;7.10;1.42;;;10.00;99.90;;;;;;4967217;28;20037;-80
2024/04/02 07:36:27;;;;;;;7.32;1.33;;;10.10;99.90;;;;;;4986933;28;20034;-81
2024/04/02 07:38:52;;;;;;;5.40;1.30;;;10.10;99.90;;;;;;4970696;28;20066;-80
2024/04/02 07:41:18;;;;;;;7.80;1.67;;;10.20;99.90;;;;;;4982532;28;20498;-81
2024/04/02 07:43:44;;;;;;;2.47;1.55;;;10.20;99.90;;;;;;4969841;28;20576;-80
2024/04/02 07:46:09;;;;;;;4.53;1.20;;;10.20;99.90;;;;;;4988749;28;20058;-81
2024/04/02 07:48:35;;;;;;;6.35;2.58;;;10.30;99.90;;;;;;4988057;28;20030;-80
2024/04/02 07:51:10;;;;;;;10.57;1.52;;;10.30;99.90;;;;;;4957687;28;20030;-81
2024/04/02 07:53:36;;;;;;;6.05;1.08;;;10.30;99.90;;;;;;4959884;28;20121;-80
2024/04/02 07:56:02;;;;;;;5.50;1.20;;;10.30;99.90;;;;;;4979754;28;20471;-81
2024/04/02 07:58:28;;;;;;;5.13;0.85;;;10.40;99.90;;;;;;4957220;28;20034;-81
2024/04/02 08:00:53;;;;;;;5.50;0.98;;;10.40;99.90;;;;;;4966751;28;20039;-80
2024/04/02 08:03:19;;;;;;;7.97;1.17;;;10.40;99.90;;;;;;4969819;28;20154;-80
2024/04/02 08:05:45;;;;;;;5.35;1.08;;;10.40;99.90;;;;;;4962745;28;20038;-81
2024/04/02 08:08:10;;;;;;;2.85;0.77;;;10.40;99.90;;;;;;4970378;28;20085;-80
2024/04/02 08:10:36;;;;;;;5.80;1.20;;;10.50;99.90;;;;;;4984687;28;20038;-80
2024/04/02 08:13:01;;;;;;;8.48;1.45;;;10.50;99.90;;;;;;4991299;28;20452;-80
2024/04/02 08:15:27;;;;;;;6.50;1.92;;;10.50;99.90;;;;;;4972109;28;20482;-80
2024/04/02 08:17:52;;;;;;;5.32;1.10;;;10.50;99.90;;;;;;4958058;28;20026;-81
2024/04/02 08:20:18;;;;;;;8.40;1.67;;;10.50;99.90;;;;;;4966543;28;20039;-78
2024/04/02 08:22:43;;;;;;;2.67;0.85;;;10.50;99.90;;;;;;4975263;28;20030;-79
2024/04/02 08:25:10;;;;;;;4.13;1.10;;;10.40;99.90;;;;;;4970600;28;20069;-79
2024/04/02 08:27:38;;;;;;;11.10;1.58;;;10.40;99.90;;;;;;4967779;28;20031;-78
2024/04/02 08:30:08;;;;;;;6.57;1.33;;;10.50;99.90;;;;;;4955859;28;20377;-79
2024/04/02 08:32:34;;;;;;;8.20;1.63;;;10.60;99.90;;;;;;4968639;28;20043;-79
2024/04/02 08:34:59;;;;;;;8.30;1.40;;;10.50;99.90;;;;;;4985109;28;20046;-78
2024/04/02 08:37:25;;;;;;;1.23;1.13;;;10.60;99.90;;;;;;4959503;28;20058;-79
2024/04/02 08:39:51;;;;;;;4.97;1.10;;;10.70;99.90;;;;;;4995719;28;20076;-81
2024/04/02 08:42:16;;;;;;;10.13;1.30;;;10.70;99.90;;;;;;4974014;28;20514;-81
2024/04/02 08:44:42;;;;;;;4.88;1.10;;;10.80;99.90;;;;;;4994788;28;20434;-81
2024/04/02 08:47:08;;;;;;;4.70;1.30;;;10.70;99.90;;;;;;4964345;28;20023;-81
2024/04/02 08:49:33;;;;;;;12.15;1.48;;;10.80;99.90;;;;;;4955766;28;20038;-81
2024/04/02 08:52:02;;;;;;;2.60;1.00;;;10.90;99.90;;;;;;4957480;28;20437;-81
2024/04/02 08:54:28;;;;;;;8.73;2.15;;;10.90;99.90;;;;;;4989843;28;20061;-81
2024/04/02 08:56:54;;;;;;;2.72;0.95;;;10.90;99.90;;;;;;4989219;28;20150;-81
2024/04/02 08:59:19;;;;;;;2.85;0.70;;;11.00;99.90;;;;;;4989787;28;20118;-81
2024/04/02 09:01:45;;;;;;;8.40;1.17;;;11.10;99.90;;;;;;4984062;28;20030;-80
2024/04/02 09:04:12;;;;;;;3.55;1.13;;;10.90;99.90;;;;;;4991751;28;20478;-80
2024/04/02 09:06:38;;;;;;;3.83;1.45;;;11.00;99.90;;;;;;4991006;28;20484;-80
2024/04/02 09:09:06;;;;;;;12.02;1.48;;;11.10;99.90;;;;;;4988125;28;20030;-80
2024/04/02 09:11:32;;;;;;;9.50;1.13;;;11.00;99.90;;;;;;4989424;28;20385;-80
2024/04/02 09:14:04;;;;;;;9.25;1.73;;;11.10;99.90;;;;;;4970958;28;20495;-81
2024/04/02 09:16:31;;;;;;;5.03;1.10;;;11.10;99.90;;;;;;4974132;28;20110;-80
2024/04/02 09:18:58;;;;;;;15.18;1.58;;;11.00;99.90;;;;;;4981426;28;20049;-80
2024/04/02 09:21:25;;;;;;;3.95;0.93;;;10.90;99.90;;;;;;4987076;28;20027;-80
2024/04/02 09:23:50;;;;;;;6.55;1.13;;;11.10;99.90;;;;;;4963553;28;20065;-81
2024/04/02 09:26:16;;;;;;;5.03;1.08;;;11.20;99.90;;;;;;4985393;28;20061;-80
2024/04/02 09:28:42;;;;;;;9.48;1.25;;;11.30;99.90;;;;;;4959157;28;20065;-80
2024/04/02 09:31:07;;;;;;;2.58;0.90;;;11.30;99.90;;;;;;4973804;28;20041;-80
2024/04/02 09:33:36;;;;;;;5.22;1.52;;;11.20;99.90;;;;;;4971169;28;20034;-80
2024/04/02 09:36:09;;;;;;;4.50;1.00;;;11.30;99.90;;;;;;4968635;28;20242;-81
2024/04/02 09:38:38;;;;;;;4.28;1.05;;;11.50;99.90;;;;;;4972991;28;20031;-80
2024/04/02 09:41:04;;;;;;;5.15;1.00;;;11.50;99.90;;;;;;4958955;28;20039;-80
2024/04/02 09:43:31;;;;;;;4.95;1.13;;;11.60;99.90;;;;;;4963995;28;20081;-80
2024/04/02 09:45:58;;;;;;;4.90;1.13;;;11.60;99.90;;;;;;4968638;28;20120;-80
2024/04/02 09:48:26;;;;;;;4.22;0.35;;;11.50;99.90;;;;;;4983861;28;20110;-79
2024/04/02 09:50:52;;;;;;;1.73;0.85;;;11.50;99.90;;;;;;4972625;28;20038;-80
2024/04/02 09:53:19;;;;;;;5.03;0.82;;;11.60;99.90;;;;;;4987413;28;20508;-80
2024/04/02 09:55:44;;;;;;;5.70;1.17;;;11.60;99.90;;;;;;4976294;28;20046;-80
2024/04/02 09:58:10;;;;;;;3.08;0.98;;;11.40;99.90;;;;;;4990202;28;20035;-80
2024/04/02 10:00:36;;;;;;;5.60;0.95;;;11.60;99.90;;;;;;4952698;28;20045;-81
2024/04/02 10:03:01;;;;;;;7.80;1.10;;;11.70;99.90;;;;;;4959750;28;20424;-80
2024/04/02 10:05:27;;;;;;;4.10;1.60;;;11.60;99.90;;;;;;4956814;28;20027;-80
2024/04/02 10:07:52;;;;;;;2.22;0.93;;;11.50;99.90;;;;;;4971741;28;20038;-81
2024/04/02 10:10:18;;;;;;;3.05;1.00;;;11.60;99.90;;;;;;4973502;28;20034;-80
2024/04/02 10:12:50;;;;;;;4.50;0.63;;;12.00;99.90;;;;;;4985452;28;20041;-80
2024/04/02 10:15:17;;;;;;;5.68;1.27;;;12.10;99.90;;;;;;4971754;28;20037;-80
2024/04/02 10:17:43;;;;;;;1.70;0.80;;;12.10;99.90;;;;;;4977349;28;20089;-80
2024/04/02 10:20:18;;;;;;;1.45;0.77;;;12.00;99.90;;;;;;4990419;28;20023;-80
2024/04/02 10:22:43;;;;;;;3.75;1.23;;;12.20;99.90;;;;;;4986612;28;20035;-80
2024/04/02 10:25:10;;;;;;;2.85;0.63;;;12.30;99.90;;;;;;4956898;28;20038;-80
2024/04/02 10:27:35;;;;;;;6.93;0.82;;;12.30;99.90;;;;;;4974328;28;20385;-80
2024/04/02 10:30:02;;;;;;;3.10;0.75;;;12.20;99.90;;;;;;4976267;28;20034;-81
2024/04/02 10:32:32;;;;;;;2.03;0.40;;;12.50;99.90;;;;;;4957923;28;20499;-80
2024/04/02 10:34:57;;;;;;;2.80;1.08;;;12.30;99.90;;;;;;4985674;28;20033;-79
2024/04/02 10:37:23;;;;;;;4.43;1.33;;;12.20;99.90;;;;;;4951337;28;20035;-80
2024/04/02 10:39:48;;;;;;;3.17;1.15;;;12.40;99.90;;;;;;4986695;28;20027;-80
2024/04/02 10:42:14;;;;;;;6.72;1.13;;;12.50;99.90;;;;;;4975820;28;20112;-80
2024/04/02 10:44:39;;;;;;;6.22;0.90;;;12.70;99.90;;;;;;4994625;28;20038;-79
2024/04/02 10:47:06;;;;;;;3.40;0.77;;;12.80;99.90;;;;;;4958983;28;20023;-80
2024/04/02 10:49:31;;;;;;;2.53;0.90;;;12.80;99.90;;;;;;4987223;28;20039;-80
2024/04/02 10:52:06;;;;;;;8.07;1.55;;;12.50;99.90;;;;;;4960290;28;20510;-80
2024/04/02 10:54:33;;;;;;;3.88;0.88;;;12.90;99.90;;;;;;4986928;28;20111;-80
2024/04/02 10:56:58;;;;;;;1.30;0.40;;;13.10;99.90;;;;;;4973270;28;20069;-80
2024/04/02 10:59:24;;;;;;;6.40;0.82;;;13.10;99.90;;;;;;4986192;28;20034;-79
2024/04/02 11:01:53;;;;;;;6.53;0.80;;;13.40;99.90;;;;;;4974323;28;20064;-80
2024/04/02 11:04:19;;;;;;;1.52;0.43;;;13.50;99.90;;;;;;4972304;28;20038;-80
2024/04/02 11:06:44;;;;;;;6.90;1.45;;;13.40;99.90;;;;;;4972281;28;20038;-79
2024/04/02 11:09:11;;;;;;;3.42;0.70;;;13.80;99.90;;;;;;4972088;28;20031;-78
2024/04/02 11:11:36;;;;;;;2.80;0.73;;;14.00;99.90;;;;;;4981898;28;20551;-80
2024/04/02 11:14:09;;;;;;;6.10;1.17;;;14.10;99.90;;;;;;4988719;28;20157;-80
2024/04/02 11:16:35;;;;;;;0.60;0.35;;;14.50;99.90;;;;;;4985595;28;20492;-80
2024/04/02 11:19:00;;;;;;;7.80;0.90;;;14.80;99.90;;;;;;4985823;28;20121;-80
2024/04/02 11:21:26;;;;;;;2.25;0.70;;;14.80;99.90;;;;;;4967733;28;20035;-79
2024/04/02 11:26:35;;;;;;;8.05;0.57;;;14.40;99.90;;;;;;4980792;28;20045;-79
2024/04/02 11:29:04;;;;;;;4.00;0.85;;;14.30;99.90;;;;;;4971754;28;20034;-79
2024/04/02 11:31:30;;;;;;;3.53;0.70;;;14.70;99.90;;;;;;4971283;28;20507;-79
2024/04/02 11:33:55;;;;;;;3.55;0.60;;;14.60;99.90;;;;;;4970229;28;20060;-79
2024/04/02 11:36:21;;;;;;;3.08;0.70;;;14.50;99.90;;;;;;4988682;28;20038;-79
2024/04/02 11:38:46;;;;;;;2.17;0.57;;;14.70;99.90;;;;;;4990750;28;20038;-78
2024/04/02 11:41:12;;;;;;;2.40;1.00;;;14.60;99.90;;;;;;4959592;28;20034;-78
2024/04/02 11:43:38;;;;;;;1.63;0.50;;;14.80;99.90;;;;;;4988663;28;20035;-80
2024/04/02 11:46:03;;;;;;;1.88;0.57;;;14.70;99.90;;;;;;4986358;28;20056;-78
2024/04/02 11:48:29;;;;;;;1.95;0.65;;;14.70;99.90;;;;;;4975057;28;20034;-79
2024/04/02 11:50:55;;;;;;;1.88;0.60;;;14.30;99.90;;;;;;4987278;28;20070;-81
2024/04/02 11:53:21;;;;;;;3.83;0.85;;;14.10;99.90;;;;;;4965597;28;20076;-80
2024/04/02 11:55:49;;;;;;;3.22;0.50;;;14.00;99.90;;;;;;4955948;28;20045;-79
2024/04/02 12:01:03;;;;;;;4.10;0.73;;;13.70;99.90;;;;;;4988423;28;20432;-80
2024/04/02 12:03:29;;;;;;;7.70;0.70;;;13.90;99.90;;;;;;4984026;28;20042;-80
2024/04/02 12:05:55;;;;;;;6.18;1.25;;;13.90;99.90;;;;;;4955064;28;20052;-80
2024/04/02 12:08:21;;;;;;;2.83;0.75;;;14.10;99.90;;;;;;4982490;28;20683;-80
2024/04/02 12:10:47;;;;;;;0.30;0.30;;;13.90;99.90;;;;;;4957024;28;20042;-80
2024/04/02 12:13:12;;;;;;;2.15;0.38;;;13.80;99.90;;;;;;4972923;28;20070;-80
2024/04/02 12:15:38;;;;;;;2.60;0.82;;;13.60;99.90;;;;;;4959963;28;20058;-79
2024/04/02 12:18:04;;;;;;;0.95;0.60;;;13.50;99.90;;;;;;4975900;28;20046;-80
2024/04/02 12:20:29;;;;;;;1.35;0.70;;;13.30;99.90;;;;;;4977991;28;20050;-79
2024/04/02 12:22:55;;;;;;;5.47;1.13;;;13.10;99.90;;;;;;4958721;28;20066;-80
2024/04/02 12:25:22;;;;;;;2.42;0.60;;;12.90;99.90;;;;;;4974354;28;20118;-80
2024/04/02 12:27:48;;;;;;;2.13;0.38;;;12.80;99.90;;;;;;4961555;28;20053;-79
2024/04/02 12:30:13;;;;;;;0.45;0.25;;;12.70;99.90;;;;;;4965581;28;20084;-80
2024/04/02 12:32:41;;;;;;;1.25;0.40;;;12.70;99.90;;;;;;4989068;28;20531;-80
2024/04/02 12:35:06;;;;;;;3.13;0.38;;;12.80;99.90;;;;;;4958130;28;20026;-79
2024/04/02 12:37:33;;;;;;;2.10;1.00;;;12.80;99.90;;;;;;4976654;28;20031;-80
2024/04/02 12:39:58;;;;;;;2.15;0.70;;;12.70;99.90;;;;;;4967536;28;20035;-79
2024/04/02 12:42:24;;;;;;;3.83;1.23;;;12.60;99.90;;;;;;4961891;28;20034;-79
2024/04/02 12:44:50;;;;;;;1.75;0.47;;;12.60;99.90;;;;;;4973283;28;20484;-79
2024/04/02 12:47:15;;;;;;;5.68;0.85;;;12.50;99.90;;;;;;4974288;28;20042;-80
2024/04/02 12:49:41;;;;;;;6.18;1.20;;;12.40;99.90;;;;;;4963037;28;20050;-80
2024/04/02 12:52:08;;;;;;;6.70;1.08;;;12.50;99.90;;;;;;4955268;28;20630;-80